Time;durP1;ratioP1;P1;durP2;ratioP2;P2;SDS_P1;SDS_P2;PMS_P1;PMS_P2;Temp;Humidity;BMP_temperature;BMP_pressure;BME280_temperature;BME280_humidity;BME280_pressure;Samples;Min_cycle;Max_cycle;Signal;HPM_P1;HPM_P2
2021/01/04 00:02:56;;;;;;;4.70;3.30;;;5.60;99.90;;;;;;4927435;29;20902;-71
2021/01/04 00:05:56;;;;;;;4.53;3.70;;;5.60;99.90;;;;;;4924214;29;20591;-70
2021/01/04 00:09:22;;;;;;;3.50;2.90;;;5.60;99.90;;;;;;4912866;29;20751;-70
2021/01/04 00:12:37;;;;;;;5.10;3.10;;;5.70;99.90;;;;;;4927104;29;20647;-70
2021/01/04 00:15:42;;;;;;;4.70;3.23;;;5.70;99.90;;;;;;4907751;29;20679;-70
2021/01/04 00:18:38;;;;;;;6.10;3.03;;;5.70;99.90;;;;;;4910480;29;20787;-70
2021/01/04 00:21:33;;;;;;;4.97;2.87;;;5.70;99.90;;;;;;4927948;29;20726;-70
2021/01/04 00:24:48;;;;;;;3.70;3.13;;;5.70;99.90;;;;;;4924266;29;21169;-70
2021/01/04 00:27:40;;;;;;;5.60;2.93;;;5.70;99.90;;;;;;4988047;28;20777;-70
2021/01/04 00:30:41;;;;;;;3.97;3.07;;;5.70;99.90;;;;;;5001093;28;20647;-70
2021/01/04 00:33:45;;;;;;;6.13;3.00;;;5.80;99.90;;;;;;5001157;28;20625;-71
2021/01/04 00:36:40;;;;;;;4.07;2.93;;;5.80;99.90;;;;;;4991953;28;20623;-70
2021/01/04 00:39:39;;;;;;;5.27;3.30;;;5.80;99.90;;;;;;4986331;28;20726;-70
2021/01/04 00:42:37;;;;;;;4.30;3.23;;;5.90;99.90;;;;;;5005479;28;20671;-70
2021/01/04 00:45:43;;;;;;;4.80;2.73;;;5.90;99.90;;;;;;4991145;28;20672;-71
2021/01/04 00:48:33;;;;;;;3.90;2.97;;;5.90;99.90;;;;;;5003448;28;20591;-70
2021/01/04 00:51:23;;;;;;;4.33;3.17;;;5.90;99.90;;;;;;4988087;28;20635;-70
2021/01/04 00:54:25;;;;;;;4.13;2.70;;;6.00;99.90;;;;;;4990985;28;20659;-70
2021/01/04 00:57:36;;;;;;;5.20;2.83;;;5.90;99.90;;;;;;5008556;28;21200;-70
2021/01/04 01:00:23;;;;;;;3.47;3.10;;;5.90;99.90;;;;;;5000132;23;20840;-70
2021/01/04 01:03:25;;;;;;;4.20;2.83;;;5.90;99.90;;;;;;5021749;28;20787;-72
2021/01/04 01:06:18;;;;;;;3.20;2.80;;;5.90;99.90;;;;;;5021565;28;20660;-71
2021/01/04 01:09:05;;;;;;;5.10;2.40;;;5.90;99.90;;;;;;5022651;28;20622;-70
2021/01/04 01:12:18;;;;;;;4.57;2.97;;;5.90;99.90;;;;;;5002807;28;20646;-70
2021/01/04 01:15:17;;;;;;;2.70;2.30;;;6.00;99.90;;;;;;5015119;28;20651;-71
2021/01/04 01:18:11;;;;;;;6.27;2.73;;;6.00;99.90;;;;;;5012855;28;20670;-71
2021/01/04 01:20:56;;;;;;;3.93;2.00;;;5.90;99.90;;;;;;5001055;28;21369;-70
2021/01/04 01:23:41;;;;;;;4.10;2.70;;;6.00;99.90;;;;;;5001690;28;21145;-70
2021/01/04 01:27:00;;;;;;;3.60;2.40;;;5.90;99.90;;;;;;5008519;28;20734;-70
2021/01/04 01:29:56;;;;;;;3.93;2.73;;;6.00;99.90;;;;;;5008195;28;21315;-70
2021/01/04 01:33:02;;;;;;;3.70;2.80;;;5.90;99.90;;;;;;5002708;28;20636;-70
2021/01/04 01:36:05;;;;;;;2.67;2.10;;;6.00;99.90;;;;;;5013864;28;20742;-69
2021/01/04 01:39:44;;;;;;;2.60;2.33;;;6.00;99.90;;;;;;5003510;28;21223;-71
2021/01/04 01:43:01;;;;;;;2.83;2.63;;;6.10;99.90;;;;;;5002766;28;21240;-71
2021/01/04 01:45:55;;;;;;;3.53;2.23;;;6.10;99.90;;;;;;5011926;28;20612;-70
2021/01/04 01:49:02;;;;;;;2.80;1.77;;;6.10;99.90;;;;;;5010024;28;20615;-70
2021/01/04 01:52:22;;;;;;;2.30;1.97;;;6.10;99.90;;;;;;4997833;28;20729;-70
2021/01/04 01:55:22;;;;;;;3.63;1.87;;;6.10;99.90;;;;;;5006456;28;20639;-70
2021/01/04 01:58:30;;;;;;;2.30;1.70;;;6.00;99.90;;;;;;4998389;28;20698;-71
2021/01/04 02:01:40;;;;;;;4.87;2.10;;;6.00;99.90;;;;;;5001368;28;21276;-71
2021/01/04 02:04:53;;;;;;;2.50;1.70;;;6.00;99.90;;;;;;4998105;28;20622;-70
2021/01/04 02:08:11;;;;;;;3.57;1.90;;;6.00;99.90;;;;;;5016300;28;21046;-70
2021/01/04 02:11:04;;;;;;;3.40;2.00;;;6.00;99.90;;;;;;5009956;28;20646;-71
2021/01/04 02:14:19;;;;;;;3.60;1.90;;;6.00;99.90;;;;;;5007401;28;20718;-71
2021/01/04 02:17:16;;;;;;;3.30;1.60;;;6.10;99.90;;;;;;4999299;28;20596;-70
2021/01/04 02:20:30;;;;;;;2.27;2.00;;;6.10;99.90;;;;;;5004469;28;20885;-71
2021/01/04 02:23:34;;;;;;;3.00;1.87;;;6.10;99.90;;;;;;5009203;28;21452;-71
2021/01/04 02:26:24;;;;;;;3.23;2.07;;;6.00;99.90;;;;;;5011150;28;20630;-71
2021/01/04 02:29:13;;;;;;;2.00;1.70;;;6.00;99.90;;;;;;5008018;28;20747;-70
2021/01/04 02:32:01;;;;;;;2.30;1.73;;;6.00;99.90;;;;;;5011614;28;20630;-70
2021/01/04 02:34:50;;;;;;;2.50;1.73;;;6.00;99.90;;;;;;5002540;28;20663;-70
2021/01/04 02:37:35;;;;;;;1.73;1.50;;;6.00;99.90;;;;;;5013497;28;20610;-71
2021/01/04 02:40:19;;;;;;;1.73;1.63;;;6.00;99.90;;;;;;5010380;28;21256;-70
2021/01/04 02:43:04;;;;;;;2.40;1.70;;;6.00;99.90;;;;;;5005233;28;20803;-69
2021/01/04 02:45:49;;;;;;;2.80;1.57;;;5.90;99.90;;;;;;5020285;28;20623;-71
2021/01/04 02:48:50;;;;;;;2.27;1.40;;;6.00;99.90;;;;;;4999970;28;20611;-71
2021/01/04 02:51:42;;;;;;;2.63;1.47;;;6.00;99.90;;;;;;5001547;28;20657;-70
2021/01/04 02:54:35;;;;;;;1.77;1.53;;;6.00;99.90;;;;;;5018525;28;20675;-69
2021/01/04 02:58:05;;;;;;;2.80;1.70;;;6.00;99.90;;;;;;5013268;28;20619;-71
2021/01/04 03:01:05;;;;;;;1.67;1.50;;;6.00;99.90;;;;;;5001654;28;20810;-70
2021/01/04 03:03:49;;;;;;;1.67;1.50;;;6.00;99.90;;;;;;5003592;28;20607;-71
2021/01/04 03:07:11;;;;;;;2.80;1.97;;;6.00;99.90;;;;;;5002011;28;20643;-70
2021/01/04 03:09:57;;;;;;;4.87;1.60;;;6.00;99.90;;;;;;5006180;28;20995;-70
2021/01/04 03:12:51;;;;;;;2.70;1.80;;;6.00;99.90;;;;;;5012308;28;20766;-70
2021/01/04 03:15:57;;;;;;;1.90;1.60;;;6.00;99.90;;;;;;5010271;28;20665;-70
2021/01/04 03:18:48;;;;;;;1.67;1.27;;;5.90;99.90;;;;;;5005779;28;20921;-70
2021/01/04 03:21:33;;;;;;;4.37;1.37;;;5.90;99.90;;;;;;5012116;28;20641;-70
2021/01/04 03:24:18;;;;;;;3.67;1.80;;;5.90;99.90;;;;;;5009816;28;20618;-70
2021/01/04 03:27:15;;;;;;;1.50;1.30;;;5.90;99.90;;;;;;5010955;28;20645;-72
2021/01/04 03:30:00;;;;;;;2.80;1.43;;;5.90;99.90;;;;;;5001869;28;20662;-71
2021/01/04 03:32:44;;;;;;;2.43;1.90;;;5.90;99.90;;;;;;5012455;28;20956;-70
2021/01/04 03:35:29;;;;;;;1.57;1.30;;;5.90;99.90;;;;;;5012728;28;20759;-71
2021/01/04 03:38:13;;;;;;;1.80;1.30;;;5.80;99.90;;;;;;4995602;28;20673;-70
2021/01/04 03:41:03;;;;;;;2.90;1.33;;;5.80;99.90;;;;;;5003148;28;21346;-71
2021/01/04 03:43:47;;;;;;;1.90;1.40;;;5.80;99.90;;;;;;5009759;28;20650;-69
2021/01/04 03:46:32;;;;;;;2.00;1.27;;;5.80;99.90;;;;;;5003828;28;20768;-70
2021/01/04 03:49:17;;;;;;;1.77;1.20;;;5.80;99.90;;;;;;5003874;28;20625;-68
2021/01/04 03:52:01;;;;;;;1.43;1.23;;;5.80;99.90;;;;;;5011071;28;21361;-69
2021/01/04 03:54:46;;;;;;;2.03;1.20;;;5.80;99.90;;;;;;5011548;28;20701;-71
2021/01/04 03:57:31;;;;;;;3.53;1.30;;;5.80;99.90;;;;;;5014265;28;20667;-70
2021/01/04 04:00:18;;;;;;;2.10;1.60;;;5.80;99.90;;;;;;4996337;28;20667;-70
2021/01/04 04:03:03;;;;;;;2.60;1.30;;;5.80;99.90;;;;;;5013804;28;20662;-70
2021/01/04 04:05:48;;;;;;;1.77;1.50;;;5.70;99.90;;;;;;5002416;28;20999;-71
2021/01/04 04:08:33;;;;;;;1.27;0.77;;;5.70;99.90;;;;;;5006632;28;20631;-70
2021/01/04 04:11:17;;;;;;;1.40;1.30;;;5.70;99.90;;;;;;5000726;28;20658;-70
2021/01/04 04:14:03;;;;;;;3.03;1.10;;;5.70;99.90;;;;;;5008613;28;20655;-71
2021/01/04 04:16:49;;;;;;;1.67;1.37;;;5.60;99.90;;;;;;5006517;28;20610;-70
2021/01/04 04:19:33;;;;;;;4.20;1.00;;;5.60;99.90;;;;;;5005538;28;20734;-70
2021/01/04 04:22:18;;;;;;;1.90;1.27;;;5.60;99.90;;;;;;4999409;28;20630;-70
2021/01/04 04:25:05;;;;;;;2.80;1.40;;;5.50;99.90;;;;;;4999936;28;20600;-70
2021/01/04 04:27:53;;;;;;;2.00;1.27;;;5.50;99.90;;;;;;5008225;28;23166;-70
2021/01/04 04:30:37;;;;;;;2.27;1.17;;;5.50;99.90;;;;;;5005427;28;20653;-70
2021/01/04 04:33:22;;;;;;;2.03;1.23;;;5.50;99.90;;;;;;5007943;28;20622;-70
2021/01/04 04:36:08;;;;;;;3.20;1.40;;;5.50;99.90;;;;;;5000770;28;20603;-71
2021/01/04 04:38:53;;;;;;;5.20;1.30;;;5.50;99.90;;;;;;4999308;28;21212;-71
2021/01/04 04:41:49;;;;;;;2.03;0.93;;;5.50;99.90;;;;;;4999895;28;20655;-70
2021/01/04 04:44:36;;;;;;;2.07;1.60;;;5.50;99.90;;;;;;5012048;28;20591;-70
2021/01/04 04:47:50;;;;;;;4.10;1.40;;;5.50;99.90;;;;;;5002770;28;20806;-71
2021/01/04 04:50:58;;;;;;;1.37;1.13;;;5.40;99.90;;;;;;5006311;28;20650;-70
2021/01/04 04:54:08;;;;;;;2.90;1.53;;;5.40;99.90;;;;;;5001802;28;20677;-70
2021/01/04 04:57:11;;;;;;;1.60;1.30;;;5.30;99.90;;;;;;5007336;28;21313;-71
2021/01/04 05:00:28;;;;;;;1.43;1.33;;;5.20;99.90;;;;;;5000458;28;20662;-71
2021/01/04 05:03:31;;;;;;;1.33;1.23;;;5.20;99.90;;;;;;5001106;28;20700;-70
2021/01/04 05:06:30;;;;;;;1.80;1.57;;;5.10;99.90;;;;;;5004616;28;20627;-71
2021/01/04 05:09:30;;;;;;;5.20;1.80;;;5.10;99.90;;;;;;4994630;28;20637;-69
2021/01/04 05:12:18;;;;;;;3.10;1.30;;;5.10;99.90;;;;;;5006004;28;21239;-70
2021/01/04 05:15:15;;;;;;;2.60;1.50;;;5.10;99.90;;;;;;5000053;28;20762;-70
2021/01/04 05:18:43;;;;;;;2.10;1.63;;;5.00;99.90;;;;;;5012369;28;20611;-69
2021/01/04 05:21:47;;;;;;;3.00;1.47;;;5.00;99.90;;;;;;5006125;28;20639;-69
2021/01/04 05:24:50;;;;;;;2.20;1.60;;;5.00;99.90;;;;;;5001446;28;20603;-70
2021/01/04 05:27:53;;;;;;;2.70;1.50;;;5.10;99.90;;;;;;5000495;28;20722;-71
2021/01/04 05:30:43;;;;;;;3.30;2.10;;;5.10;99.90;;;;;;5008726;28;21255;-70
2021/01/04 05:34:00;;;;;;;1.57;1.47;;;5.10;99.90;;;;;;5002810;28;20603;-69
2021/01/04 05:37:07;;;;;;;3.77;1.63;;;5.10;99.90;;;;;;5014756;28;20673;-69
2021/01/04 05:40:26;;;;;;;1.53;1.40;;;5.10;99.90;;;;;;4997284;28;21080;-69
2021/01/04 05:43:33;;;;;;;1.57;1.33;;;5.10;99.90;;;;;;5011106;28;20643;-70
2021/01/04 05:46:21;;;;;;;3.87;1.90;;;5.10;99.90;;;;;;5002876;28;20616;-69
2021/01/04 05:49:24;;;;;;;2.20;2.00;;;5.20;99.90;;;;;;5004638;28;21255;-70
2021/01/04 05:52:09;;;;;;;2.13;1.80;;;5.10;99.90;;;;;;5007994;28;20986;-71
2021/01/04 05:54:53;;;;;;;2.30;1.53;;;5.00;99.90;;;;;;5000397;28;20639;-71
2021/01/04 05:57:46;;;;;;;1.93;1.73;;;5.00;99.90;;;;;;5005976;28;21202;-74
2021/01/04 06:00:34;;;;;;;2.93;2.00;;;4.90;99.90;;;;;;5024678;28;20702;-74
2021/01/04 06:03:22;;;;;;;2.57;2.23;;;4.90;99.90;;;;;;5013384;28;20670;-69
2021/01/04 06:06:27;;;;;;;2.00;1.90;;;4.90;99.90;;;;;;5009413;28;20575;-69
2021/01/04 06:09:17;;;;;;;2.50;1.90;;;4.80;99.90;;;;;;5017795;28;20921;-70
2021/01/04 06:12:48;;;;;;;2.47;2.27;;;4.80;99.90;;;;;;5003386;28;20635;-70
2021/01/04 06:15:38;;;;;;;2.93;2.13;;;4.70;99.90;;;;;;4996361;28;20654;-72
2021/01/04 06:18:27;;;;;;;2.00;1.90;;;4.70;99.90;;;;;;5004854;28;20610;-71
2021/01/04 06:21:33;;;;;;;2.60;2.30;;;4.80;99.90;;;;;;5009577;28;20667;-69
2021/01/04 06:24:29;;;;;;;2.40;2.20;;;4.80;99.90;;;;;;5023401;28;20606;-70
2021/01/04 06:27:17;;;;;;;2.30;2.10;;;4.70;99.90;;;;;;5011868;28;20976;-71
2021/01/04 06:30:19;;;;;;;2.27;2.07;;;4.80;99.90;;;;;;5009054;28;20726;-69
2021/01/04 06:33:12;;;;;;;3.03;2.20;;;4.80;99.90;;;;;;5011521;28;20977;-69
2021/01/04 06:36:06;;;;;;;3.60;2.03;;;4.80;99.90;;;;;;5019609;28;20708;-69
2021/01/04 06:38:52;;;;;;;2.80;1.83;;;4.80;99.90;;;;;;5010208;28;20623;-69
2021/01/04 06:41:37;;;;;;;2.00;1.90;;;4.70;99.90;;;;;;5018410;28;21252;-70
2021/01/04 06:44:29;;;;;;;2.03;1.83;;;4.60;99.90;;;;;;5007702;28;20622;-70
2021/01/04 06:47:38;;;;;;;1.83;1.70;;;4.60;99.90;;;;;;5010693;28;20615;-70
2021/01/04 06:50:34;;;;;;;2.20;2.00;;;4.60;99.90;;;;;;5005925;28;20642;-69
2021/01/04 06:53:28;;;;;;;2.00;1.90;;;4.60;99.90;;;;;;5010209;28;20715;-70
2021/01/04 06:56:39;;;;;;;2.43;2.10;;;4.60;99.90;;;;;;5003554;28;20639;-70
2021/01/04 07:02:15;;;;;;;2.50;2.30;;;4.60;99.90;;;;;;5052888;22;20696;-71
2021/01/04 07:05:44;;;;;;;3.37;2.80;;;4.60;99.90;;;;;;5028110;28;20634;-70
2021/01/04 07:08:50;;;;;;;2.37;2.17;;;4.50;99.90;;;;;;5017993;28;20700;-70
2021/01/04 07:12:01;;;;;;;2.57;2.37;;;4.40;99.90;;;;;;5016056;28;21476;-70
2021/01/04 07:15:07;;;;;;;2.63;2.00;;;4.40;99.90;;;;;;5024124;28;20839;-70
2021/01/04 07:18:10;;;;;;;2.37;2.17;;;4.30;99.90;;;;;;5017473;28;20691;-70
2021/01/04 07:21:17;;;;;;;2.80;2.10;;;4.30;99.90;;;;;;5009363;28;20653;-70
2021/01/04 07:24:27;;;;;;;2.73;2.53;;;4.30;99.90;;;;;;5001418;28;20642;-70
2021/01/04 07:27:32;;;;;;;2.23;2.03;;;4.20;99.90;;;;;;5032067;28;20666;-70
2021/01/04 07:31:01;;;;;;;2.50;1.90;;;4.20;99.90;;;;;;5020466;28;23557;-70
2021/01/04 07:33:55;;;;;;;2.70;2.50;;;4.20;99.90;;;;;;5022379;28;20609;-70
2021/01/04 07:36:58;;;;;;;2.30;2.10;;;4.20;99.90;;;;;;5020208;28;21017;-70
2021/01/04 07:39:53;;;;;;;2.37;2.10;;;4.30;99.90;;;;;;5020026;28;20645;-70
2021/01/04 07:42:47;;;;;;;3.00;2.00;;;4.20;99.90;;;;;;5033658;28;20618;-70
2021/01/04 07:45:56;;;;;;;2.90;2.00;;;4.10;99.90;;;;;;5023674;28;20617;-70
2021/01/04 07:49:12;;;;;;;2.60;2.13;;;4.10;99.90;;;;;;5015865;28;20683;-70
2021/01/04 07:52:43;;;;;;;3.67;2.33;;;4.10;99.90;;;;;;5017237;28;20649;-70
2021/01/04 07:56:09;;;;;;;4.23;2.47;;;4.10;99.90;;;;;;4948897;28;20711;-70
2021/01/04 07:58:57;;;;;;;2.40;2.20;;;4.00;99.90;;;;;;4966565;28;21358;-70
2021/01/04 08:02:00;;;;;;;4.10;2.20;;;4.00;99.90;;;;;;4956137;28;21209;-70
2021/01/04 08:05:12;;;;;;;3.30;2.60;;;4.00;99.90;;;;;;5016803;28;20632;-70
2021/01/04 08:08:10;;;;;;;2.93;2.13;;;4.00;99.90;;;;;;5016147;28;20711;-70
2021/01/04 08:11:32;;;;;;;3.07;2.70;;;3.90;99.90;;;;;;5012121;28;20718;-70
2021/01/04 08:14:38;;;;;;;2.80;2.50;;;3.90;99.90;;;;;;5009674;28;22776;-70
2021/01/04 08:17:31;;;;;;;3.43;2.50;;;3.90;99.90;;;;;;5008530;28;20624;-70
2021/01/04 08:20:16;;;;;;;3.70;2.60;;;3.90;99.90;;;;;;5022265;28;20710;-70
2021/01/04 08:23:38;;;;;;;3.00;2.63;;;3.90;99.90;;;;;;5008041;28;20622;-71
2021/01/04 08:27:00;;;;;;;2.83;2.23;;;3.90;99.90;;;;;;5007489;28;20625;-70
2021/01/04 08:30:00;;;;;;;2.57;2.23;;;3.90;99.90;;;;;;5004375;28;20707;-70
2021/01/04 08:33:04;;;;;;;3.30;3.00;;;3.90;99.90;;;;;;5019615;28;20764;-70
2021/01/04 08:35:49;;;;;;;2.60;2.40;;;3.90;99.90;;;;;;5005650;28;21257;-70
2021/01/04 08:38:37;;;;;;;2.93;2.23;;;3.90;99.90;;;;;;5004904;28;20687;-70
2021/01/04 08:41:27;;;;;;;2.90;2.57;;;4.00;99.90;;;;;;5028440;28;20664;-70
2021/01/04 08:44:19;;;;;;;2.13;1.97;;;3.90;99.90;;;;;;5043318;28;20637;-71
2021/01/04 08:47:25;;;;;;;3.40;2.77;;;3.80;99.90;;;;;;5025516;28;20681;-70
2021/01/04 08:50:28;;;;;;;3.33;2.70;;;3.90;99.90;;;;;;5022793;28;20974;-70
2021/01/04 08:53:21;;;;;;;4.27;2.70;;;3.90;99.90;;;;;;5022180;28;21025;-70
2021/01/04 08:56:14;;;;;;;3.93;2.93;;;3.80;99.90;;;;;;5018115;28;21283;-71
2021/01/04 08:59:23;;;;;;;3.60;2.73;;;3.80;99.90;;;;;;5022833;28;20586;-71
2021/01/04 09:02:14;;;;;;;2.53;2.33;;;3.80;99.90;;;;;;5028016;28;21108;-70
2021/01/04 09:05:01;;;;;;;4.63;3.07;;;3.80;99.90;;;;;;5018908;28;21007;-70
2021/01/04 09:07:56;;;;;;;2.60;2.40;;;3.80;99.90;;;;;;5024454;28;20610;-70
2021/01/04 09:10:51;;;;;;;3.23;2.50;;;3.80;99.90;;;;;;5022751;28;21164;-70
2021/01/04 09:13:38;;;;;;;3.10;2.37;;;3.80;99.90;;;;;;5021364;28;20571;-70
2021/01/04 09:16:31;;;;;;;3.03;2.73;;;3.80;99.90;;;;;;5019351;28;20697;-70
2021/01/04 09:19:28;;;;;;;3.60;2.60;;;3.90;99.90;;;;;;5018727;28;20601;-70
2021/01/04 09:22:21;;;;;;;2.90;2.70;;;3.90;99.90;;;;;;5037373;28;20632;-70
2021/01/04 09:25:22;;;;;;;5.17;2.60;;;3.90;99.90;;;;;;5031117;28;20661;-70
2021/01/04 09:28:08;;;;;;;3.33;2.37;;;3.90;99.90;;;;;;5021403;28;20593;-70
2021/01/04 09:30:53;;;;;;;2.10;2.00;;;3.90;99.90;;;;;;5016668;28;20744;-70
2021/01/04 09:33:49;;;;;;;2.37;2.17;;;3.80;99.90;;;;;;5030751;28;20629;-69
2021/01/04 09:36:34;;;;;;;3.07;2.03;;;3.90;99.90;;;;;;5019982;28;20696;-70
2021/01/04 09:39:26;;;;;;;2.70;2.50;;;3.90;99.90;;;;;;5032462;28;20614;-70
2021/01/04 09:42:26;;;;;;;2.33;2.13;;;3.80;99.90;;;;;;5015699;28;20645;-71
2021/01/04 09:45:19;;;;;;;2.67;2.10;;;3.80;99.90;;;;;;5022417;28;21176;-71
2021/01/04 09:48:28;;;;;;;2.10;1.90;;;3.90;99.90;;;;;;5033774;28;20601;-71
2021/01/04 09:51:18;;;;;;;2.43;2.23;;;3.90;99.90;;;;;;5014812;28;20834;-71
2021/01/04 09:54:06;;;;;;;3.17;2.47;;;4.00;99.90;;;;;;5024468;28;20614;-72
2021/01/04 09:57:00;;;;;;;2.13;2.03;;;4.10;99.90;;;;;;5019835;28;21113;-71
2021/01/04 09:59:45;;;;;;;2.23;1.93;;;4.10;99.90;;;;;;5019555;28;20973;-71
2021/01/04 10:02:32;;;;;;;2.20;2.10;;;4.20;99.90;;;;;;5022113;28;20579;-71
2021/01/04 10:05:18;;;;;;;2.17;2.07;;;4.20;99.90;;;;;;5005691;28;20598;-68
2021/01/04 10:08:06;;;;;;;2.13;2.03;;;4.20;99.90;;;;;;5003323;28;21974;-69
2021/01/04 10:11:16;;;;;;;2.13;1.93;;;4.20;99.90;;;;;;5014579;28;20782;-71
2021/01/04 10:14:11;;;;;;;1.80;1.70;;;4.10;99.90;;;;;;5005225;28;21846;-69
2021/01/04 10:16:59;;;;;;;2.27;2.10;;;4.00;99.90;;;;;;5006165;28;20630;-69
2021/01/04 10:19:54;;;;;;;2.67;2.47;;;4.10;99.90;;;;;;5010613;28;20989;-69
2021/01/04 10:22:46;;;;;;;2.17;1.97;;;4.10;99.90;;;;;;5027829;28;21159;-71
2021/01/04 10:25:41;;;;;;;2.20;1.80;;;4.10;99.90;;;;;;5009249;28;20604;-68
2021/01/04 10:28:32;;;;;;;2.40;2.20;;;4.10;99.90;;;;;;5012332;28;20602;-69
2021/01/04 10:31:30;;;;;;;2.20;2.10;;;4.10;99.90;;;;;;5010146;28;20657;-69
2021/01/04 10:34:18;;;;;;;2.47;2.27;;;4.10;99.90;;;;;;5028342;28;20618;-69
2021/01/04 10:37:04;;;;;;;1.73;1.63;;;4.10;99.90;;;;;;5012774;28;20605;-71
2021/01/04 10:39:49;;;;;;;2.90;2.30;;;4.10;99.90;;;;;;5013514;28;20649;-68
2021/01/04 10:42:35;;;;;;;3.17;1.80;;;4.10;99.90;;;;;;5013165;28;20637;-70
2021/01/04 10:45:38;;;;;;;2.30;2.13;;;4.10;99.90;;;;;;5014372;28;20654;-71
2021/01/04 10:48:29;;;;;;;3.17;2.13;;;4.20;99.90;;;;;;5015131;28;21155;-69
2021/01/04 10:51:22;;;;;;;2.03;1.87;;;4.20;99.90;;;;;;5011684;28;20672;-68
2021/01/04 10:54:15;;;;;;;2.00;1.90;;;4.20;99.90;;;;;;5027947;28;20606;-71
2021/01/04 10:57:23;;;;;;;2.10;1.90;;;4.20;99.90;;;;;;5014807;28;20622;-69
2021/01/04 11:00:22;;;;;;;1.93;1.80;;;4.20;99.90;;;;;;5012179;28;20675;-69
2021/01/04 11:03:13;;;;;;;2.53;1.93;;;4.30;99.90;;;;;;5025141;28;20637;-69
2021/01/04 11:05:58;;;;;;;1.87;1.50;;;4.30;99.90;;;;;;5027790;28;20581;-69
2021/01/04 11:08:42;;;;;;;2.20;2.00;;;4.40;99.90;;;;;;5032401;28;20590;-69
2021/01/04 11:11:38;;;;;;;1.87;1.70;;;4.40;99.90;;;;;;5026212;28;20649;-70
2021/01/04 11:14:23;;;;;;;1.70;1.60;;;4.30;99.90;;;;;;5031842;28;20690;-69
2021/01/04 11:17:11;;;;;;;1.90;1.70;;;4.40;99.90;;;;;;5034049;28;20628;-70
2021/01/04 11:20:15;;;;;;;2.30;2.10;;;4.40;99.90;;;;;;5030974;28;20713;-70
2021/01/04 11:23:19;;;;;;;1.50;1.40;;;4.30;99.90;;;;;;5040404;28;20707;-70
2021/01/04 11:26:07;;;;;;;3.10;1.70;;;4.30;99.90;;;;;;5034225;28;20621;-71
2021/01/04 11:28:51;;;;;;;1.60;1.50;;;4.40;99.90;;;;;;5047096;28;20633;-70
2021/01/04 11:31:36;;;;;;;3.27;1.90;;;4.40;99.90;;;;;;5030896;28;20648;-70
2021/01/04 11:34:21;;;;;;;1.80;1.70;;;4.40;99.90;;;;;;5033738;28;20597;-70
2021/01/04 11:37:05;;;;;;;1.80;1.70;;;4.30;99.90;;;;;;4994971;28;20606;-70
2021/01/04 11:39:51;;;;;;;1.53;1.43;;;4.30;99.90;;;;;;4995055;28;20737;-70
2021/01/04 11:42:35;;;;;;;1.50;1.40;;;4.40;99.90;;;;;;5001418;28;20597;-70
2021/01/04 11:45:21;;;;;;;1.70;1.60;;;4.40;99.90;;;;;;5002094;28;20588;-70
2021/01/04 11:48:07;;;;;;;1.70;1.60;;;4.30;99.90;;;;;;5010205;28;21184;-70
2021/01/04 11:50:52;;;;;;;1.50;1.40;;;4.40;99.90;;;;;;5040512;28;20727;-70
2021/01/04 11:53:37;;;;;;;1.47;1.37;;;4.40;99.90;;;;;;5031381;28;20620;-71
2021/01/04 11:56:23;;;;;;;2.30;1.73;;;4.30;99.90;;;;;;5020358;28;20661;-71
2021/01/04 11:59:07;;;;;;;1.67;1.20;;;4.40;99.90;;;;;;5004662;28;20601;-71
2021/01/04 12:01:54;;;;;;;1.53;1.40;;;4.40;99.90;;;;;;5007196;28;20730;-71
2021/01/04 12:04:39;;;;;;;1.70;1.60;;;4.40;99.90;;;;;;5006959;28;20633;-70
2021/01/04 12:07:23;;;;;;;1.50;1.40;;;4.30;99.90;;;;;;5006350;28;20598;-71
2021/01/04 12:10:09;;;;;;;1.73;1.40;;;4.30;99.90;;;;;;5006558;28;20680;-70
2021/01/04 12:12:56;;;;;;;1.83;1.73;;;4.30;99.90;;;;;;5012762;28;20628;-69
2021/01/04 12:15:40;;;;;;;1.40;1.30;;;4.30;99.90;;;;;;5012147;28;20781;-70
2021/01/04 12:18:25;;;;;;;1.93;1.40;;;4.30;99.90;;;;;;5002318;28;20675;-70
2021/01/04 12:21:09;;;;;;;1.70;1.60;;;4.30;99.90;;;;;;5022489;28;20665;-69
2021/01/04 12:23:54;;;;;;;1.70;1.60;;;4.30;99.90;;;;;;5014870;28;20640;-70
2021/01/04 12:26:39;;;;;;;1.70;1.60;;;4.30;99.90;;;;;;5011668;28;21122;-70
2021/01/04 12:29:24;;;;;;;3.10;2.00;;;4.30;99.90;;;;;;5009665;28;20871;-70
2021/01/04 12:32:09;;;;;;;2.13;1.90;;;4.30;99.90;;;;;;5006504;28;20807;-70
2021/01/04 12:34:54;;;;;;;2.17;2.07;;;4.30;99.90;;;;;;4990264;28;20724;-71
2021/01/04 12:37:39;;;;;;;3.97;2.00;;;4.30;99.90;;;;;;5018436;28;20717;-71
2021/01/04 12:40:29;;;;;;;2.80;2.03;;;4.30;99.90;;;;;;5021665;28;20666;-71
2021/01/04 12:43:14;;;;;;;2.07;1.70;;;4.30;99.90;;;;;;5029283;28;21824;-71
2021/01/04 12:46:02;;;;;;;2.60;2.37;;;4.30;99.90;;;;;;5008719;28;20602;-71
2021/01/04 12:48:47;;;;;;;2.30;1.70;;;4.30;99.90;;;;;;5029782;28;20629;-70
2021/01/04 12:51:31;;;;;;;2.13;1.87;;;4.30;99.90;;;;;;5030119;28;20656;-70
2021/01/04 12:54:21;;;;;;;1.80;1.70;;;4.30;99.90;;;;;;5025091;28;20617;-71
2021/01/04 12:57:09;;;;;;;1.43;1.30;;;4.30;99.90;;;;;;5011862;28;20773;-70
2021/01/04 12:59:53;;;;;;;1.70;1.60;;;4.30;99.90;;;;;;5014413;28;21166;-71
2021/01/04 13:02:38;;;;;;;3.90;1.80;;;4.40;99.90;;;;;;5021105;28;20589;-70
2021/01/04 13:05:22;;;;;;;2.47;2.27;;;4.30;99.90;;;;;;5025059;23;20725;-68
2021/01/04 13:08:07;;;;;;;2.67;2.00;;;4.40;99.90;;;;;;5000833;28;20662;-68
2021/01/04 13:10:51;;;;;;;2.17;1.80;;;4.40;99.90;;;;;;4998071;28;21030;-70
2021/01/04 13:13:36;;;;;;;2.27;1.83;;;4.40;99.90;;;;;;5003953;28;20638;-72
2021/01/04 13:16:21;;;;;;;2.57;2.00;;;4.40;99.90;;;;;;4999042;28;20671;-70
2021/01/04 13:19:07;;;;;;;2.23;1.90;;;4.30;99.90;;;;;;4992728;28;21228;-68
2021/01/04 13:21:56;;;;;;;1.80;1.70;;;4.30;99.90;;;;;;4966874;28;20732;-69
2021/01/04 13:24:41;;;;;;;2.30;2.10;;;4.30;99.90;;;;;;4963328;28;20966;-69
2021/01/04 13:27:25;;;;;;;3.77;2.03;;;4.30;99.90;;;;;;4997737;28;20715;-70
2021/01/04 13:30:10;;;;;;;2.20;2.00;;;4.30;99.90;;;;;;4970906;28;20719;-69
2021/01/04 13:32:55;;;;;;;2.67;2.33;;;4.30;99.90;;;;;;4974703;28;20635;-69
2021/01/04 13:35:39;;;;;;;3.03;1.90;;;4.30;99.90;;;;;;4985906;28;20684;-70
2021/01/04 13:38:26;;;;;;;4.17;2.57;;;4.20;99.90;;;;;;4986783;28;20620;-70
2021/01/04 13:41:15;;;;;;;3.30;2.30;;;4.20;99.90;;;;;;4979569;28;20696;-74
2021/01/04 13:43:59;;;;;;;2.90;2.33;;;4.30;99.90;;;;;;4970864;28;20624;-69
2021/01/04 13:46:44;;;;;;;2.43;2.10;;;4.30;99.90;;;;;;4988151;28;20827;-68
2021/01/04 13:49:30;;;;;;;1.87;1.77;;;4.30;99.90;;;;;;4972754;28;20652;-69
2021/01/04 13:52:19;;;;;;;1.73;1.47;;;4.30;99.90;;;;;;4986476;28;20660;-70
2021/01/04 13:55:06;;;;;;;1.93;1.73;;;4.40;99.90;;;;;;4959655;28;20667;-70
2021/01/04 13:57:50;;;;;;;3.60;1.90;;;4.30;99.90;;;;;;4985515;28;20765;-70
2021/01/04 14:00:35;;;;;;;1.93;1.53;;;4.40;99.90;;;;;;4973264;28;20652;-70
2021/01/04 14:03:19;;;;;;;2.50;1.90;;;4.40;99.90;;;;;;4986768;28;20627;-72
2021/01/04 14:06:04;;;;;;;1.80;1.70;;;4.40;99.90;;;;;;4970272;28;21985;-70
2021/01/04 14:08:49;;;;;;;2.30;1.83;;;4.40;99.90;;;;;;4972931;28;20624;-67
2021/01/04 14:11:39;;;;;;;2.10;1.90;;;4.30;99.90;;;;;;4959764;28;20757;-68
2021/01/04 14:14:24;;;;;;;2.03;1.90;;;4.30;99.90;;;;;;4979733;28;21212;-69
2021/01/04 14:17:09;;;;;;;2.53;2.20;;;4.30;99.90;;;;;;4988804;28;20668;-71
2021/01/04 14:19:53;;;;;;;2.10;2.00;;;4.40;99.90;;;;;;4981138;28;20703;-70
2021/01/04 14:22:38;;;;;;;2.33;2.10;;;4.30;99.90;;;;;;4970381;28;20703;-69
2021/01/04 14:25:23;;;;;;;2.30;2.10;;;4.30;99.90;;;;;;4990246;28;20636;-77
2021/01/04 14:28:08;;;;;;;3.27;1.90;;;4.30;99.90;;;;;;4975138;28;20593;-75
2021/01/04 14:30:52;;;;;;;2.43;2.20;;;4.30;99.90;;;;;;4988677;28;21209;-73
2021/01/04 14:33:37;;;;;;;2.60;1.93;;;4.30;99.90;;;;;;4989689;28;20592;-75
2021/01/04 14:36:21;;;;;;;2.23;1.90;;;4.20;99.90;;;;;;4986360;28;21162;-72
2021/01/04 14:39:09;;;;;;;2.13;1.93;;;4.10;99.90;;;;;;4983865;28;21198;-72
2021/01/04 14:42:06;;;;;;;2.03;1.93;;;4.10;99.90;;;;;;4987341;28;20612;-75
2021/01/04 14:44:51;;;;;;;2.10;1.90;;;4.10;99.90;;;;;;4985551;28;20593;-70
2021/01/04 14:47:36;;;;;;;2.33;2.03;;;4.10;99.90;;;;;;4981779;28;20624;-68
2021/01/04 14:50:21;;;;;;;2.23;2.00;;;4.10;99.90;;;;;;4983439;28;21001;-68
2021/01/04 14:53:06;;;;;;;3.40;2.27;;;4.20;99.90;;;;;;4980341;28;20772;-68
2021/01/04 14:55:50;;;;;;;2.40;2.20;;;4.20;99.90;;;;;;4977736;28;20790;-68
2021/01/04 14:58:36;;;;;;;2.07;1.97;;;4.40;99.90;;;;;;4980378;28;21329;-69
2021/01/04 15:01:21;;;;;;;3.47;2.57;;;4.20;99.90;;;;;;4982957;28;20640;-68
2021/01/04 15:04:07;;;;;;;2.80;2.47;;;4.20;99.90;;;;;;4966960;28;21293;-70
2021/01/04 15:06:56;;;;;;;2.43;2.20;;;4.30;99.90;;;;;;4981189;28;20777;-69
2021/01/04 15:09:40;;;;;;;2.10;1.90;;;4.20;99.90;;;;;;4982056;28;20671;-69
2021/01/04 15:12:25;;;;;;;2.63;2.20;;;4.10;99.90;;;;;;4965154;28;20714;-66
2021/01/04 15:15:11;;;;;;;3.07;1.93;;;4.00;99.90;;;;;;4981239;28;21071;-69
2021/01/04 15:17:55;;;;;;;2.70;1.90;;;4.10;99.90;;;;;;4979918;28;20632;-68
2021/01/04 15:20:40;;;;;;;3.23;2.30;;;4.00;99.90;;;;;;4989935;28;20636;-67
2021/01/04 15:23:25;;;;;;;2.53;2.33;;;4.00;99.90;;;;;;4977002;28;20612;-69